createdAt,value
2019-03-15T00:04:40.168Z,4.37
2019-03-15T00:07:18.304Z,4.03
2019-03-15T00:09:55.003Z,4.63
2019-03-15T00:12:35.753Z,3.77
2019-03-15T00:15:10.889Z,4.67
2019-03-15T00:17:45.596Z,3.70
2019-03-15T00:20:20.108Z,4.00
2019-03-15T00:22:58.776Z,4.43
2019-03-15T00:25:34.915Z,3.73
2019-03-15T00:28:12.232Z,4.30
2019-03-15T00:30:46.905Z,4.40
2019-03-15T00:33:22.047Z,4.60
2019-03-15T00:35:56.729Z,4.73
2019-03-15T00:38:31.834Z,4.47
2019-03-15T00:41:06.335Z,4.87
2019-03-15T00:43:40.378Z,4.63
2019-03-15T00:46:15.080Z,4.60
2019-03-15T00:48:50.961Z,4.10
2019-03-15T00:51:24.771Z,4.83
2019-03-15T00:53:59.398Z,5.07
2019-03-15T00:56:36.185Z,4.87
2019-03-15T00:59:12.201Z,5.43
2019-03-15T01:01:49.619Z,5.73
2019-03-15T01:04:27.599Z,5.70
2019-03-15T01:07:02.888Z,5.00
2019-03-15T01:09:37.831Z,5.33
2019-03-15T01:12:14.065Z,5.67
2019-03-15T01:14:48.861Z,5.73
2019-03-15T01:17:24.424Z,6.30
2019-03-15T01:20:00.283Z,5.80
2019-03-15T01:22:34.505Z,5.40
2019-03-15T01:25:09.229Z,5.67
2019-03-15T01:27:43.223Z,5.57
2019-03-15T01:30:18.268Z,4.93
2019-03-15T01:32:51.765Z,4.87
2019-03-15T01:35:26.165Z,4.30
2019-03-15T01:37:59.322Z,4.70
2019-03-15T01:40:32.857Z,5.40
2019-03-15T01:43:07.585Z,4.80
2019-03-15T01:45:41.677Z,5.07
2019-03-15T01:48:14.866Z,5.03
2019-03-15T01:50:48.826Z,4.47
2019-03-15T01:53:24.146Z,4.03
2019-03-15T01:56:00.042Z,4.10
2019-03-15T01:58:34.541Z,4.57
2019-03-15T02:01:09.047Z,4.00
2019-03-15T02:03:43.065Z,3.97
2019-03-15T02:06:17.537Z,4.17
2019-03-15T02:08:53.393Z,4.33
2019-03-15T02:11:29.451Z,3.63
2019-03-15T02:14:05.409Z,3.70
2019-03-15T02:16:43.790Z,4.50
2019-03-15T02:19:21.630Z,3.60
2019-03-15T02:21:57.797Z,3.90
2019-03-15T02:24:32.897Z,4.60
2019-03-15T02:27:08.769Z,4.70
2019-03-15T02:29:48.701Z,3.60
2019-03-15T02:32:25.928Z,4.23
2019-03-15T02:35:03.373Z,4.07
2019-03-15T02:37:37.050Z,4.23
2019-03-15T02:40:10.766Z,4.63
2019-03-15T02:42:47.379Z,4.60
2019-03-15T02:45:23.153Z,4.30
2019-03-15T02:47:58.393Z,3.67
2019-03-15T02:50:33.828Z,3.80
2019-03-15T02:53:09.005Z,4.13
2019-03-15T02:55:42.369Z,4.37
2019-03-15T02:58:17.938Z,3.67
2019-03-15T03:00:52.372Z,3.70
2019-03-15T03:03:25.864Z,4.57
2019-03-15T03:06:03.733Z,4.00
2019-03-15T03:08:37.372Z,4.77
2019-03-15T03:11:11.027Z,3.97
2019-03-15T03:13:44.828Z,3.93
2019-03-15T03:16:19.685Z,3.83
2019-03-15T03:18:53.561Z,3.97
2019-03-15T03:21:27.740Z,3.50
2019-03-15T03:24:01.079Z,3.23
2019-03-15T03:26:35.674Z,3.87
2019-03-15T03:29:08.776Z,3.60
2019-03-15T03:31:44.403Z,3.50
2019-03-15T03:34:18.179Z,4.10
2019-03-15T03:36:57.268Z,3.63
2019-03-15T03:39:29.881Z,4.00
2019-03-15T03:42:04.466Z,3.50
2019-03-15T03:44:38.588Z,3.23
2019-03-15T03:47:13.403Z,3.37
2019-03-15T03:49:51.219Z,3.27
2019-03-15T03:52:25.377Z,3.20
2019-03-15T03:55:01.898Z,2.80
2019-03-15T03:57:36.532Z,4.13
2019-03-15T04:00:12.105Z,2.90
2019-03-15T04:02:46.913Z,3.57
2019-03-15T04:05:21.467Z,3.37
2019-03-15T04:07:55.894Z,3.03
2019-03-15T04:10:31.204Z,3.50
2019-03-15T04:13:05.373Z,3.60
2019-03-15T04:15:39.340Z,3.40
2019-03-15T04:18:12.651Z,3.40
2019-03-15T04:20:47.197Z,3.30
2019-03-15T04:23:20.683Z,3.43
2019-03-15T04:25:54.345Z,3.10
2019-03-15T04:28:29.238Z,3.20
2019-03-15T04:31:05.431Z,2.73
2019-03-15T04:33:39.723Z,3.00
2019-03-15T04:36:13.689Z,3.00
2019-03-15T04:38:48.507Z,3.50
2019-03-15T04:41:23.053Z,3.07
2019-03-15T04:43:57.571Z,3.10
2019-03-15T04:46:31.566Z,3.17
2019-03-15T04:49:05.486Z,3.30
2019-03-15T04:51:42.814Z,2.90
2019-03-15T04:54:18.804Z,3.00
2019-03-15T04:56:52.331Z,2.77
2019-03-15T04:59:27.509Z,3.40
2019-03-15T05:02:03.116Z,3.80
2019-03-15T05:04:37.268Z,3.50
2019-03-15T05:07:12.031Z,3.20
2019-03-15T05:09:45.743Z,3.63
2019-03-15T05:12:20.620Z,3.47
2019-03-15T05:15:00.739Z,3.97
2019-03-15T05:17:34.342Z,3.97
2019-03-15T05:20:09.508Z,3.63
2019-03-15T05:22:43.225Z,3.67
2019-03-15T05:25:16.806Z,3.13
2019-03-15T05:27:51.284Z,4.20
2019-03-15T05:30:25.131Z,3.87
2019-03-15T05:33:00.054Z,3.73
2019-03-15T05:35:33.483Z,3.40
2019-03-15T05:38:14.757Z,3.63
2019-03-15T05:40:51.331Z,4.07
2019-03-15T05:43:27.007Z,3.60
2019-03-15T05:46:04.739Z,4.27
2019-03-15T05:48:41.780Z,4.63
2019-03-15T05:51:18.271Z,3.93
2019-03-15T05:53:53.373Z,4.30
2019-03-15T05:56:28.660Z,3.80
2019-03-15T05:59:04.206Z,4.93
2019-03-15T06:01:39.277Z,4.33
2019-03-15T06:04:14.152Z,4.17
2019-03-15T06:06:49.513Z,4.83
2019-03-15T06:09:25.134Z,3.90
2019-03-15T06:12:03.276Z,4.87
2019-03-15T06:14:39.079Z,5.30
2019-03-15T06:17:15.602Z,5.37
2019-03-15T06:19:50.971Z,4.23
2019-03-15T06:22:26.872Z,4.17
2019-03-15T06:25:05.553Z,4.10
2019-03-15T06:27:53.406Z,4.80
2019-03-15T06:30:30.746Z,4.67
2019-03-15T06:33:08.488Z,4.80
2019-03-15T06:35:47.206Z,5.10
2019-03-15T06:38:27.161Z,4.33
2019-03-15T06:41:02.023Z,4.63
2019-03-15T06:43:36.545Z,4.40
2019-03-15T06:46:11.848Z,4.50
2019-03-15T06:48:46.514Z,4.87
2019-03-15T06:51:20.326Z,5.77
2019-03-15T06:53:55.172Z,5.23
2019-03-15T06:56:31.067Z,4.90
2019-03-15T06:59:06.962Z,5.07
2019-03-15T07:01:43.220Z,6.07
2019-03-15T07:04:21.729Z,5.50
2019-03-15T07:07:07.397Z,5.40
2019-03-15T07:10:01.193Z,5.40
2019-03-15T07:12:40.704Z,6.90
2019-03-15T07:15:16.534Z,6.20
2019-03-15T07:17:53.304Z,6.30
2019-03-15T07:20:29.690Z,5.60
2019-03-15T07:23:05.735Z,6.43
2019-03-15T07:25:41.488Z,6.33
2019-03-15T07:28:15.579Z,6.30
2019-03-15T07:30:50.096Z,5.77
2019-03-15T07:33:24.758Z,5.70
2019-03-15T07:36:00.304Z,6.00
2019-03-15T07:38:36.839Z,6.00
2019-03-15T07:41:12.202Z,6.17
2019-03-15T07:43:48.192Z,5.57
2019-03-15T07:46:23.933Z,5.40
2019-03-15T07:49:00.293Z,6.00
2019-03-15T07:51:36.765Z,6.37
2019-03-15T07:54:16.275Z,6.90
2019-03-15T07:56:51.656Z,7.27
2019-03-15T07:59:27.995Z,7.63
2019-03-15T08:02:04.308Z,7.23
2019-03-15T08:04:39.284Z,7.20
2019-03-15T08:07:14.033Z,6.33
2019-03-15T08:09:50.994Z,6.10
2019-03-15T08:12:28.570Z,6.83
2019-03-15T08:15:03.177Z,6.50
2019-03-15T08:17:37.830Z,7.30
2019-03-15T08:20:13.066Z,7.23
2019-03-15T08:22:47.862Z,6.47
2019-03-15T08:25:22.423Z,6.80
2019-03-15T08:27:55.381Z,6.43
2019-03-15T08:30:29.406Z,6.07
2019-03-15T08:33:10.078Z,6.93
2019-03-15T08:35:40.794Z,7.23
2019-03-15T08:38:16.358Z,5.70
2019-03-15T08:40:51.300Z,6.60
2019-03-15T08:43:26.146Z,6.73
2019-03-15T08:46:02.827Z,6.60
2019-03-15T08:48:36.002Z,6.40
2019-03-15T08:51:11.058Z,6.33
2019-03-15T08:53:46.700Z,6.60
2019-03-15T08:56:20.165Z,5.97
2019-03-15T08:58:55.238Z,6.00
2019-03-15T09:01:30.061Z,5.80
2019-03-15T09:04:07.276Z,6.03
2019-03-15T09:06:43.336Z,6.07
2019-03-15T09:09:17.667Z,6.43
2019-03-15T09:11:54.872Z,6.90
2019-03-15T09:14:30.555Z,6.70
2019-03-15T09:17:05.609Z,7.00
2019-03-15T09:19:41.357Z,6.93
2019-03-15T09:22:17.284Z,6.70
2019-03-15T09:24:51.155Z,7.83
2019-03-15T09:27:26.980Z,7.83
2019-03-15T09:30:02.322Z,8.57
2019-03-15T09:32:37.381Z,8.00
2019-03-15T09:35:13.979Z,7.73
2019-03-15T09:37:48.634Z,8.23
2019-03-15T09:40:25.655Z,9.23
2019-03-15T09:43:00.005Z,8.53
2019-03-15T09:45:35.531Z,8.73
2019-03-15T09:48:12.019Z,9.00
2019-03-15T09:50:51.633Z,9.43
2019-03-15T09:53:22.594Z,9.00
2019-03-15T09:55:56.540Z,10.47
2019-03-15T09:58:30.821Z,8.60
2019-03-15T10:01:05.320Z,8.87
2019-03-15T10:03:40.731Z,8.37
2019-03-15T10:06:19.293Z,11.27
2019-03-15T10:08:57.978Z,9.67
2019-03-15T10:11:32.912Z,8.57
2019-03-15T10:14:09.698Z,8.80
2019-03-15T10:16:44.164Z,9.27
2019-03-15T10:19:18.307Z,7.93
2019-03-15T10:21:52.539Z,9.43
2019-03-15T10:24:26.566Z,9.70
2019-03-15T10:27:00.382Z,9.23
2019-03-15T10:29:34.911Z,9.67
2019-03-15T10:32:10.337Z,9.57
2019-03-15T10:34:45.403Z,10.73
2019-03-15T10:37:23.777Z,10.77
2019-03-15T10:39:59.525Z,10.77
2019-03-15T10:42:34.117Z,9.87
2019-03-15T10:45:08.498Z,11.93
2019-03-15T10:47:43.315Z,11.50
2019-03-15T10:50:17.789Z,13.20
2019-03-15T10:52:53.827Z,13.20
2019-03-15T10:55:28.531Z,13.97
2019-03-15T10:58:03.364Z,14.30
2019-03-15T11:00:37.287Z,16.47
2019-03-15T11:03:13.087Z,15.70
2019-03-15T11:05:48.306Z,16.73
2019-03-15T11:08:24.349Z,15.83
2019-03-15T11:11:02.203Z,15.73
2019-03-15T11:13:44.663Z,16.97
2019-03-15T11:16:26.561Z,16.07
2019-03-15T11:19:06.358Z,16.60
2019-03-15T11:21:47.750Z,14.63
2019-03-15T11:24:24.407Z,15.50
2019-03-15T11:27:04.134Z,12.97
2019-03-15T11:29:40.184Z,15.83
2019-03-15T11:32:16.620Z,16.53
2019-03-15T11:34:57.757Z,16.43
2019-03-15T11:37:37.975Z,17.70
2019-03-15T11:40:20.292Z,15.10
2019-03-15T11:42:55.032Z,15.17
2019-03-15T11:45:30.180Z,13.80
2019-03-15T11:48:04.436Z,14.63
2019-03-15T11:50:39.210Z,14.70
2019-03-15T11:53:14.059Z,14.37
2019-03-15T11:55:47.991Z,14.07
2019-03-15T11:58:22.614Z,12.67
2019-03-15T12:00:56.450Z,12.50
2019-03-15T12:03:29.808Z,12.53
2019-03-15T12:06:04.790Z,12.37
2019-03-15T12:08:39.116Z,8.87
2019-03-15T12:11:13.615Z,13.13
2019-03-15T12:13:48.334Z,11.67
2019-03-15T12:16:22.295Z,12.23
2019-03-15T12:18:56.083Z,11.40
2019-03-15T12:21:30.896Z,9.20
2019-03-15T12:24:04.093Z,8.50
2019-03-15T12:26:40.506Z,8.77
2019-03-15T12:29:14.555Z,9.13
2019-03-15T12:31:54.079Z,8.27
2019-03-15T12:34:29.584Z,7.50
2019-03-15T12:37:11.082Z,5.77
2019-03-15T12:39:47.943Z,6.27
2019-03-15T12:42:29.727Z,5.90
2019-03-15T12:45:11.970Z,6.77
2019-03-15T12:47:53.332Z,6.73
2019-03-15T12:50:32.530Z,6.30
2019-03-15T12:53:10.387Z,6.00
2019-03-15T12:55:48.710Z,5.43
2019-03-15T12:58:24.363Z,5.37
2019-03-15T13:00:59.234Z,6.03
2019-03-15T13:03:38.090Z,5.03
2019-03-15T13:06:17.182Z,5.40
2019-03-15T13:09:01.074Z,5.30
2019-03-15T13:11:38.264Z,5.57
2019-03-15T13:14:16.137Z,5.80
2019-03-15T13:16:55.652Z,5.67
2019-03-15T13:19:31.214Z,5.57
2019-03-15T13:22:06.482Z,4.83
2019-03-15T13:24:45.654Z,4.73
2019-03-15T13:27:22.243Z,4.90
2019-03-15T13:29:58.125Z,4.83
2019-03-15T13:32:32.213Z,4.30
2019-03-15T13:35:07.268Z,4.20
2019-03-15T13:37:42.742Z,3.57
2019-03-15T13:40:15.119Z,4.97
2019-03-15T13:42:50.566Z,5.03
2019-03-15T13:45:22.743Z,3.87
2019-03-15T13:47:55.335Z,4.70
2019-03-15T13:50:27.752Z,5.57
2019-03-15T13:53:01.094Z,4.27
2019-03-15T13:55:34.710Z,4.03
2019-03-15T13:58:08.289Z,4.47
2019-03-15T14:00:41.351Z,4.30
2019-03-15T14:03:16.756Z,3.70
2019-03-15T14:05:51.509Z,4.20
2019-03-15T14:08:25.779Z,3.73
2019-03-15T14:10:58.091Z,3.73
2019-03-15T14:13:40.848Z,3.73
2019-03-15T14:16:13.182Z,3.17
2019-03-15T14:18:48.478Z,3.50
2019-03-15T14:21:22.283Z,3.70
2019-03-15T14:23:56.922Z,3.30
2019-03-15T14:26:30.060Z,2.80
2019-03-15T14:29:09.578Z,3.53
2019-03-15T14:31:43.014Z,3.03
2019-03-15T14:34:12.967Z,3.53
2019-03-15T14:36:49.623Z,3.20
2019-03-15T14:39:30.108Z,2.93
2019-03-15T14:42:03.911Z,2.90
2019-03-15T14:44:35.994Z,2.87
2019-03-15T14:47:07.339Z,2.93
2019-03-15T14:49:39.513Z,3.07
2019-03-15T14:52:12.007Z,2.77
2019-03-15T14:54:44.815Z,2.50
2019-03-15T14:57:16.753Z,2.53
2019-03-15T14:59:49.560Z,3.00
2019-03-15T15:02:22.777Z,2.87
2019-03-15T15:04:55.478Z,2.43
2019-03-15T15:07:28.407Z,2.60
2019-03-15T15:10:03.385Z,2.60
2019-03-15T15:12:36.145Z,2.60
2019-03-15T15:15:17.400Z,3.00
2019-03-15T15:17:49.569Z,2.30
2019-03-15T15:20:23.430Z,2.77
2019-03-15T15:22:55.392Z,3.53
2019-03-15T15:25:28.147Z,2.80
2019-03-15T15:28:04.790Z,3.63
2019-03-15T15:30:34.827Z,3.30
2019-03-15T15:33:07.157Z,3.23
2019-03-15T15:35:41.645Z,2.87
2019-03-15T15:38:14.165Z,3.50
2019-03-15T15:40:47.604Z,3.23
2019-03-15T15:43:20.120Z,3.17
2019-03-15T15:45:52.134Z,3.57
2019-03-15T15:48:24.057Z,3.93
2019-03-15T15:50:57.223Z,4.43
2019-03-15T15:53:35.401Z,4.20
2019-03-15T15:56:07.497Z,4.17
2019-03-15T15:58:42.870Z,4.33
2019-03-15T16:01:20.732Z,4.53
2019-03-15T16:03:55.889Z,5.17
2019-03-15T16:06:29.482Z,4.63
2019-03-15T16:09:02.665Z,4.87
2019-03-15T16:11:37.956Z,5.10
2019-03-15T16:14:13.166Z,5.03
2019-03-15T16:16:49.767Z,5.13
2019-03-15T16:19:25.431Z,5.10
2019-03-15T16:21:59.125Z,5.13
2019-03-15T16:24:33.316Z,5.57
2019-03-15T16:27:06.749Z,5.13
2019-03-15T16:29:41.231Z,5.77
2019-03-15T16:32:14.570Z,4.80
2019-03-15T16:34:48.287Z,5.30
2019-03-15T16:37:21.511Z,5.60
2019-03-15T16:39:58.187Z,5.13
2019-03-15T16:42:31.694Z,4.67
2019-03-15T16:45:09.680Z,4.90
2019-03-15T16:47:44.171Z,4.63
2019-03-15T16:50:19.387Z,5.27
2019-03-15T16:52:52.416Z,4.63
2019-03-15T16:55:26.383Z,5.93
2019-03-15T16:58:00.372Z,5.00
2019-03-15T17:00:35.173Z,6.70
2019-03-15T17:03:08.370Z,2.60
2019-03-15T17:05:41.963Z,2.93
2019-03-15T17:08:15.786Z,2.10
2019-03-15T17:10:49.838Z,2.30
2019-03-15T17:13:26.643Z,2.20
2019-03-15T17:16:02.488Z,2.20
2019-03-15T17:18:37.409Z,2.43
2019-03-15T17:21:13.974Z,2.43
2019-03-15T17:23:49.185Z,2.40
2019-03-15T17:26:22.747Z,2.03
2019-03-15T17:28:58.935Z,2.70
2019-03-15T17:31:33.370Z,2.47
2019-03-15T17:34:09.826Z,2.70
2019-03-15T17:36:44.212Z,3.23
2019-03-15T17:39:23.780Z,2.60
2019-03-15T17:41:59.937Z,2.80
2019-03-15T17:44:34.613Z,3.03
2019-03-15T17:47:11.861Z,2.50
2019-03-15T17:49:49.694Z,3.60
2019-03-15T17:52:55.986Z,3.43
2019-03-15T17:55:41.204Z,3.43
2019-03-15T17:58:21.244Z,3.73
2019-03-15T18:01:04.412Z,4.27
2019-03-15T18:07:18.387Z,3.20
2019-03-15T18:09:51.571Z,2.97
2019-03-15T18:12:25.355Z,3.23
2019-03-15T18:14:58.693Z,3.60
2019-03-15T18:17:34.745Z,2.83
2019-03-15T18:20:07.809Z,2.90
2019-03-15T18:22:45.093Z,2.27
2019-03-15T18:25:20.538Z,3.03
2019-03-15T18:28:01.759Z,2.50
2019-03-15T18:30:44.368Z,2.90
2019-03-15T18:33:20.005Z,2.57
2019-03-15T18:35:58.250Z,3.20
2019-03-15T18:38:37.472Z,2.77
2019-03-15T18:41:14.532Z,3.67
2019-03-15T18:43:58.146Z,2.00
2019-03-15T18:46:40.798Z,2.60
2019-03-15T18:49:18.749Z,3.00
2019-03-15T18:51:52.775Z,2.70
2019-03-15T18:54:26.055Z,3.00
2019-03-15T18:57:01.272Z,3.20
2019-03-15T18:59:40.105Z,2.50
2019-03-15T19:02:15.444Z,3.60
2019-03-15T19:04:49.791Z,3.30
2019-03-15T19:07:23.911Z,3.37
2019-03-15T19:09:57.646Z,3.57
2019-03-15T19:12:31.466Z,3.33
2019-03-15T19:15:06.054Z,3.63
2019-03-15T19:17:39.167Z,2.60
2019-03-15T19:20:13.672Z,3.33
2019-03-15T19:22:47.916Z,3.40
2019-03-15T19:25:21.585Z,3.77
2019-03-15T19:27:55.711Z,3.10
2019-03-15T19:30:31.024Z,2.73
2019-03-15T19:33:04.391Z,3.33
2019-03-15T19:35:37.170Z,3.67
2019-03-15T19:38:10.523Z,3.43
2019-03-15T19:40:45.413Z,3.77
2019-03-15T19:43:19.167Z,4.03
2019-03-15T19:45:54.299Z,3.73
2019-03-15T19:48:27.199Z,3.73
2019-03-15T19:51:00.086Z,3.70
2019-03-15T19:53:34.492Z,3.67
2019-03-15T19:56:08.453Z,3.50
2019-03-15T19:58:42.074Z,3.00
2019-03-15T20:01:16.215Z,2.90
2019-03-15T20:03:50.433Z,3.67
2019-03-15T20:06:25.521Z,3.33
2019-03-15T20:08:59.323Z,3.57
2019-03-15T20:11:33.646Z,4.17
2019-03-15T20:14:09.617Z,3.40
2019-03-15T20:16:46.298Z,3.10
2019-03-15T20:19:23.823Z,3.73
2019-03-15T20:21:59.057Z,3.60
2019-03-15T20:24:38.189Z,3.50
2019-03-15T20:27:15.307Z,3.23
2019-03-15T20:29:54.999Z,3.43
2019-03-15T20:32:39.515Z,3.33
2019-03-15T20:35:16.668Z,3.67
2019-03-15T20:37:51.302Z,3.20
2019-03-15T20:40:26.383Z,3.30
2019-03-15T20:43:02.281Z,3.20
2019-03-15T20:45:38.353Z,3.80
2019-03-15T20:48:16.420Z,2.77
2019-03-15T20:50:51.215Z,4.03
2019-03-15T20:53:25.958Z,3.10
2019-03-15T20:56:01.636Z,3.70
2019-03-15T20:58:36.383Z,3.30
2019-03-15T21:01:10.205Z,3.43
2019-03-15T21:03:55.602Z,3.23
2019-03-15T21:06:21.901Z,3.50
2019-03-15T21:08:58.322Z,3.47
2019-03-15T21:11:32.702Z,3.93
2019-03-15T21:14:07.159Z,2.70
2019-03-15T21:16:43.457Z,3.13
2019-03-15T21:19:21.815Z,3.23
2019-03-15T21:21:56.744Z,3.63
2019-03-15T21:24:32.881Z,3.30
2019-03-15T21:27:11.468Z,3.33
2019-03-15T21:29:48.236Z,3.13
2019-03-15T21:32:23.259Z,3.83
2019-03-15T21:35:01.227Z,2.90
2019-03-15T21:37:36.019Z,3.10
2019-03-15T21:40:11.365Z,3.50
2019-03-15T21:42:50.342Z,3.53
2019-03-15T21:45:25.377Z,3.47
2019-03-15T21:47:59.815Z,2.90
2019-03-15T21:50:34.470Z,2.77
2019-03-15T21:53:11.619Z,3.57
2019-03-15T21:55:45.949Z,3.47
2019-03-15T21:58:22.291Z,3.17
2019-03-15T22:01:02.178Z,3.20
2019-03-15T22:03:32.012Z,3.30
2019-03-15T22:06:05.714Z,4.30
2019-03-15T22:08:40.600Z,3.70
2019-03-15T22:11:21.159Z,3.17
2019-03-15T22:13:51.164Z,3.87
2019-03-15T22:16:24.815Z,3.70
2019-03-15T22:18:58.613Z,3.20
2019-03-15T22:21:35.797Z,4.03
2019-03-15T22:24:09.376Z,4.40
2019-03-15T22:26:43.640Z,5.20
2019-03-15T22:29:13.775Z,6.43
2019-03-15T22:31:47.505Z,7.23
2019-03-15T22:34:21.883Z,7.07
2019-03-15T22:36:55.693Z,6.93
2019-03-15T22:39:28.859Z,6.53
2019-03-15T22:42:06.351Z,5.90
2019-03-15T22:44:39.751Z,5.17
2019-03-15T22:47:14.266Z,5.03
2019-03-15T22:49:49.444Z,6.30
2019-03-15T22:52:23.957Z,5.10
2019-03-15T22:54:57.616Z,4.87
2019-03-15T22:57:32.219Z,4.50
2019-03-15T23:00:10.699Z,4.43
2019-03-15T23:02:52.815Z,4.23
2019-03-15T23:05:29.489Z,5.20
2019-03-15T23:08:04.448Z,4.90
2019-03-15T23:10:39.187Z,4.47
2019-03-15T23:13:16.188Z,4.50
2019-03-15T23:15:52.873Z,5.17
2019-03-15T23:18:27.659Z,5.00
2019-03-15T23:21:06.914Z,5.23
2019-03-15T23:23:40.662Z,5.10
2019-03-15T23:26:14.506Z,4.63
2019-03-15T23:28:48.665Z,4.20
2019-03-15T23:31:25.547Z,5.10
2019-03-15T23:33:59.144Z,4.23
2019-03-15T23:36:31.649Z,4.63
2019-03-15T23:39:05.893Z,5.07
2019-03-15T23:41:38.893Z,4.50
2019-03-15T23:44:12.381Z,4.77
2019-03-15T23:46:45.686Z,5.07
2019-03-15T23:49:18.427Z,5.33
2019-03-15T23:51:51.604Z,4.90
2019-03-15T23:54:25.346Z,5.10
2019-03-15T23:56:58.147Z,5.30
2019-03-15T23:59:31.467Z,5.57
